Time;durP1;ratioP1;P1;durP2;ratioP2;P2;SDS_P1;SDS_P2;PMS_P1;PMS_P2;Temp;Humidity;BMP_temperature;BMP_pressure;BME280_temperature;BME280_humidity;BME280_pressure;Samples;Min_cycle;Max_cycle;Signal;HPM_P1;HPM_P2
2022/05/30 00:00:55;;;;;;;6.25;2.03;;;;;;;;;;5002384;28;20093;-73
2022/05/30 00:03:21;;;;;;;8.57;1.60;;;;;;;;;;4985746;28;20892;-73
2022/05/30 00:05:47;;;;;;;5.65;1.33;;;;;;;;;;4968669;28;20083;-73
2022/05/30 00:08:14;;;;;;;7.22;1.13;;;;;;;;;;4980755;28;20279;-73
2022/05/30 00:10:39;;;;;;;3.75;1.67;;;;;;;;;;4984683;28;20125;-73
2022/05/30 00:13:06;;;;;;;6.32;1.20;;;;;;;;;;4968243;28;21319;-72
2022/05/30 00:15:32;;;;;;;4.78;1.10;;;;;;;;;;4969433;28;20038;-72
2022/05/30 00:17:58;;;;;;;4.38;1.25;;;;;;;;;;5001078;28;20072;-72
2022/05/30 00:20:23;;;;;;;4.10;1.33;;;;;;;;;;5001405;28;20026;-72
2022/05/30 00:22:49;;;;;;;4.20;1.17;;;;;;;;;;4984905;28;20464;-73
2022/05/30 00:25:14;;;;;;;3.15;1.00;;;;;;;;;;4994860;28;20026;-72
2022/05/30 00:27:39;;;;;;;5.97;1.17;;;;;;;;;;5003315;28;20030;-72
2022/05/30 00:30:05;;;;;;;3.63;1.20;;;;;;;;;;4997700;28;20472;-72
2022/05/30 00:32:32;;;;;;;5.00;1.27;;;;;;;;;;4984661;28;20649;-73
2022/05/30 00:34:57;;;;;;;5.65;1.17;;;;;;;;;;4999727;28;20026;-75
2022/05/30 00:37:25;;;;;;;9.20;1.50;;;;;;;;;;4969535;28;20021;-72
2022/05/30 00:39:54;;;;;;;4.55;1.23;;;;;;;;;;4965649;28;20037;-73
2022/05/30 00:42:21;;;;;;;3.65;1.27;;;;;;;;;;4984810;28;20118;-73
2022/05/30 00:44:48;;;;;;;3.67;0.93;;;;;;;;;;5002143;28;20037;-72
2022/05/30 00:47:15;;;;;;;3.05;1.17;;;;;;;;;;4983020;28;20381;-72
2022/05/30 00:49:41;;;;;;;2.63;0.80;;;;;;;;;;4985595;28;20050;-72
2022/05/30 00:52:08;;;;;;;5.55;1.45;;;;;;;;;;4998710;28;20117;-72
2022/05/30 00:54:42;;;;;;;7.72;1.45;;;;;;;;;;5001128;28;20022;-72
2022/05/30 00:57:20;;;;;;;4.72;1.15;;;;;;;;;;4999065;28;20120;-73
2022/05/30 00:59:53;;;;;;;3.92;1.20;;;;;;;;;;4984192;28;20369;-73
2022/05/30 01:02:20;;;;;;;4.68;0.98;;;;;;;;;;4984183;28;20426;-73
2022/05/30 01:07:29;;;;;;;6.25;1.67;;;;;;;;;;5004519;28;20080;-73
2022/05/30 01:09:56;;;;;;;2.08;1.38;;;;;;;;;;4965064;28;20038;-73
2022/05/30 01:12:33;;;;;;;4.88;1.50;;;;;;;;;;4983348;28;20040;-73
2022/05/30 01:14:59;;;;;;;3.45;1.23;;;;;;;;;;4999941;28;20464;-73
2022/05/30 01:17:24;;;;;;;2.13;1.20;;;;;;;;;;4968920;28;20555;-73
2022/05/30 01:19:53;;;;;;;4.78;1.13;;;;;;;;;;4984065;28;20033;-73
2022/05/30 01:22:24;;;;;;;7.70;1.50;;;;;;;;;;4983060;28;20198;-73
2022/05/30 01:25:04;;;;;;;3.13;1.42;;;;;;;;;;4982892;28;20469;-73
2022/05/30 01:27:35;;;;;;;4.65;1.20;;;;;;;;;;4984434;28;20089;-72
2022/05/30 01:30:04;;;;;;;3.25;1.10;;;;;;;;;;5000888;28;20029;-72
2022/05/30 01:32:29;;;;;;;3.35;1.05;;;;;;;;;;4984330;28;20391;-72
2022/05/30 01:34:55;;;;;;;3.90;1.00;;;;;;;;;;5000354;28;20487;-72
2022/05/30 01:37:20;;;;;;;4.78;1.15;;;;;;;;;;4967755;28;20030;-72
2022/05/30 01:39:46;;;;;;;4.57;1.45;;;;;;;;;;4981751;28;20041;-72
2022/05/30 01:42:12;;;;;;;3.78;1.27;;;;;;;;;;4980773;28;20026;-72
2022/05/30 01:44:37;;;;;;;5.38;1.27;;;;;;;;;;4982042;28;21400;-72
2022/05/30 01:47:04;;;;;;;4.20;1.20;;;;;;;;;;4943823;28;20174;-71
2022/05/30 01:49:29;;;;;;;3.80;1.48;;;;;;;;;;4945631;28;20026;-72
2022/05/30 01:51:55;;;;;;;5.82;1.17;;;;;;;;;;4958393;28;20438;-72
2022/05/30 01:54:20;;;;;;;5.10;1.48;;;;;;;;;;4957268;28;20027;-72
2022/05/30 01:56:46;;;;;;;2.22;1.15;;;;;;;;;;4959267;28;20014;-72
2022/05/30 01:59:11;;;;;;;6.43;1.60;;;;;;;;;;4959987;28;20481;-72
2022/05/30 02:01:37;;;;;;;3.78;1.27;;;;;;;;;;4960644;28;20026;-71
2022/05/30 02:04:06;;;;;;;4.82;1.10;;;;;;;;;;4960627;28;20038;-72
2022/05/30 02:06:32;;;;;;;4.45;1.30;;;;;;;;;;4959107;28;20433;-72
2022/05/30 02:08:58;;;;;;;6.22;1.50;;;;;;;;;;4960963;28;20547;-72
2022/05/30 02:11:24;;;;;;;4.72;1.27;;;;;;;;;;4954664;28;20023;-72
2022/05/30 02:13:49;;;;;;;5.53;1.00;;;;;;;;;;4946361;28;20030;-72
2022/05/30 02:18:59;;;;;;;3.65;1.40;;;;;;;;;;4961893;28;20034;-72
2022/05/30 02:21:25;;;;;;;3.25;1.30;;;;;;;;;;4957767;28;20294;-72
2022/05/30 02:23:50;;;;;;;5.40;1.50;;;;;;;;;;4963846;28;20030;-72
2022/05/30 02:26:15;;;;;;;3.55;1.25;;;;;;;;;;4957182;28;20444;-72
2022/05/30 02:28:41;;;;;;;4.20;1.48;;;;;;;;;;4965665;28;20045;-73
2022/05/30 02:31:06;;;;;;;5.05;1.60;;;;;;;;;;4958859;28;20517;-71
2022/05/30 02:38:59;;;;;;;5.38;1.77;;;;;;;;;;4964486;28;20037;-72
2022/05/30 02:41:25;;;;;;;5.68;1.73;;;;;;;;;;4956124;28;20445;-73
2022/05/30 02:43:53;;;;;;;4.50;1.65;;;;;;;;;;4962643;28;20137;-72
2022/05/30 02:46:18;;;;;;;5.78;1.60;;;;;;;;;;4981554;28;20069;-72
2022/05/30 02:48:44;;;;;;;3.67;1.50;;;;;;;;;;4985013;28;20161;-72
2022/05/30 02:51:09;;;;;;;4.60;1.60;;;;;;;;;;4978431;28;20029;-72
2022/05/30 02:53:35;;;;;;;3.50;1.60;;;;;;;;;;4984255;28;20357;-71
2022/05/30 02:56:01;;;;;;;6.43;1.67;;;;;;;;;;4978119;28;20018;-71
2022/05/30 02:58:26;;;;;;;5.22;1.80;;;;;;;;;;4999749;28;20573;-72
2022/05/30 03:00:51;;;;;;;6.65;1.55;;;;;;;;;;4985118;28;20033;-71
2022/05/30 03:03:18;;;;;;;4.32;1.50;;;;;;;;;;5004732;28;20149;-71
2022/05/30 03:05:43;;;;;;;4.07;1.80;;;;;;;;;;4983744;28;20099;-71
2022/05/30 03:08:09;;;;;;;4.10;1.50;;;;;;;;;;4988247;28;20384;-71
2022/05/30 03:10:34;;;;;;;7.43;1.48;;;;;;;;;;4962309;28;20546;-71
2022/05/30 03:12:59;;;;;;;5.03;1.75;;;;;;;;;;4970182;28;20022;-71
2022/05/30 03:15:25;;;;;;;4.78;1.50;;;;;;;;;;4984062;28;20033;-72
2022/05/30 03:17:51;;;;;;;5.78;1.73;;;;;;;;;;4987880;28;20049;-71
2022/05/30 03:20:17;;;;;;;2.80;1.40;;;;;;;;;;4998970;28;20075;-71
2022/05/30 03:22:43;;;;;;;4.82;1.38;;;;;;;;;;4995007;28;20825;-71
2022/05/30 03:25:10;;;;;;;7.75;1.45;;;;;;;;;;4958902;28;20140;-72
2022/05/30 03:27:36;;;;;;;4.10;1.50;;;;;;;;;;4971141;28;20355;-71
2022/05/30 03:30:04;;;;;;;3.72;1.33;;;;;;;;;;4964231;28;20113;-71
2022/05/30 03:32:29;;;;;;;5.93;1.48;;;;;;;;;;4968586;28;20047;-72
2022/05/30 03:34:59;;;;;;;6.25;1.50;;;;;;;;;;5003452;28;20040;-72
2022/05/30 03:37:25;;;;;;;4.10;1.30;;;;;;;;;;4969144;28;20109;-72
2022/05/30 03:39:54;;;;;;;3.47;1.45;;;;;;;;;;4968099;28;20042;-72
2022/05/30 03:42:20;;;;;;;4.15;1.50;;;;;;;;;;4981022;28;20022;-72
2022/05/30 03:44:45;;;;;;;5.05;1.95;;;;;;;;;;5003398;28;20046;-72
2022/05/30 03:47:12;;;;;;;3.40;1.45;;;;;;;;;;4966349;28;20099;-73
2022/05/30 03:49:41;;;;;;;4.30;1.50;;;;;;;;;;4986261;28;20033;-72
2022/05/30 03:52:07;;;;;;;4.05;1.40;;;;;;;;;;4965236;28;20053;-73
2022/05/30 03:54:33;;;;;;;8.05;1.70;;;;;;;;;;5003421;28;20033;-73
2022/05/30 03:56:58;;;;;;;6.25;1.58;;;;;;;;;;4982972;28;20022;-71
2022/05/30 03:59:23;;;;;;;5.75;1.52;;;;;;;;;;4984789;28;20515;-71
2022/05/30 04:01:49;;;;;;;2.90;1.38;;;;;;;;;;4982963;28;20018;-71
2022/05/30 04:04:14;;;;;;;3.15;1.42;;;;;;;;;;4985852;28;20018;-72
2022/05/30 04:06:40;;;;;;;3.65;1.50;;;;;;;;;;4966996;28;20310;-73
2022/05/30 04:09:05;;;;;;;6.45;2.00;;;;;;;;;;5004287;28;20026;-72
2022/05/30 04:11:31;;;;;;;3.03;1.40;;;;;;;;;;4977416;28;20024;-72
2022/05/30 04:13:56;;;;;;;3.72;1.60;;;;;;;;;;4987266;28;20376;-72
2022/05/30 04:16:21;;;;;;;4.68;1.45;;;;;;;;;;4979540;28;20436;-72
2022/05/30 04:18:47;;;;;;;4.22;1.52;;;;;;;;;;5003971;28;20026;-72
2022/05/30 04:21:12;;;;;;;3.50;1.42;;;;;;;;;;4982498;28;20228;-72
2022/05/30 04:23:40;;;;;;;7.53;1.65;;;;;;;;;;5001654;28;20058;-72
2022/05/30 04:26:06;;;;;;;5.30;1.70;;;;;;;;;;4981609;28;20030;-73
2022/05/30 04:28:31;;;;;;;3.67;1.50;;;;;;;;;;5001418;28;20036;-72
2022/05/30 04:30:57;;;;;;;5.00;1.80;;;;;;;;;;4983047;28;20443;-72
2022/05/30 04:33:27;;;;;;;5.32;1.70;;;;;;;;;;4995421;28;20030;-72
2022/05/30 04:35:52;;;;;;;5.97;1.60;;;;;;;;;;4978090;28;20026;-71
2022/05/30 04:38:18;;;;;;;6.32;1.52;;;;;;;;;;4984612;28;20076;-71
2022/05/30 04:40:44;;;;;;;5.38;1.58;;;;;;;;;;4965926;28;20034;-72
2022/05/30 04:43:09;;;;;;;3.63;1.73;;;;;;;;;;5002545;28;20029;-72
2022/05/30 04:45:34;;;;;;;4.07;1.52;;;;;;;;;;5001468;28;20413;-72
2022/05/30 04:48:00;;;;;;;5.68;1.70;;;;;;;;;;5001273;28;20122;-72
2022/05/30 04:50:25;;;;;;;3.75;2.05;;;;;;;;;;4998980;28;20049;-71
2022/05/30 04:52:50;;;;;;;6.03;1.67;;;;;;;;;;4981194;28;20045;-72
2022/05/30 04:55:18;;;;;;;7.18;1.80;;;;;;;;;;5001443;28;20085;-72
2022/05/30 04:57:44;;;;;;;4.70;1.73;;;;;;;;;;4981749;28;20121;-72
2022/05/30 05:00:10;;;;;;;5.43;1.65;;;;;;;;;;5002619;28;20437;-72
2022/05/30 05:02:36;;;;;;;3.53;1.63;;;;;;;;;;4981167;28;20045;-71
2022/05/30 05:05:01;;;;;;;4.38;1.55;;;;;;;;;;5002485;28;20530;-72
2022/05/30 05:07:27;;;;;;;4.90;1.60;;;;;;;;;;4961770;28;20531;-72
2022/05/30 05:09:57;;;;;;;5.90;1.60;;;;;;;;;;4973995;28;20137;-71
2022/05/30 05:12:23;;;;;;;3.67;1.33;;;;;;;;;;4954100;28;20018;-71
2022/05/30 05:14:48;;;;;;;4.50;1.80;;;;;;;;;;4966368;28;20105;-72
2022/05/30 05:17:13;;;;;;;5.38;1.58;;;;;;;;;;4969096;28;20026;-72
2022/05/30 05:19:39;;;;;;;5.25;1.83;;;;;;;;;;4983080;28;20033;-73
2022/05/30 05:22:06;;;;;;;3.90;1.63;;;;;;;;;;4983158;28;20028;-72
2022/05/30 05:24:31;;;;;;;6.68;2.10;;;;;;;;;;4982572;28;20428;-71
2022/05/30 05:26:56;;;;;;;4.43;1.70;;;;;;;;;;5000869;28;20332;-71
2022/05/30 05:29:25;;;;;;;6.05;1.45;;;;;;;;;;4981945;28;20065;-72
2022/05/30 05:31:51;;;;;;;4.20;1.40;;;;;;;;;;4982657;28;20544;-72
2022/05/30 05:34:16;;;;;;;4.80;1.42;;;;;;;;;;4969010;28;20026;-72
2022/05/30 05:36:44;;;;;;;5.65;1.52;;;;;;;;;;4995848;28;20814;-72
2022/05/30 05:39:10;;;;;;;5.63;1.60;;;;;;;;;;4984448;28;20080;-73
2022/05/30 05:41:35;;;;;;;3.63;1.60;;;;;;;;;;4978937;28;20440;-72
2022/05/30 05:44:00;;;;;;;3.45;1.33;;;;;;;;;;4982878;28;20472;-73
2022/05/30 05:46:27;;;;;;;3.15;1.20;;;;;;;;;;4998190;28;20049;-72
2022/05/30 05:48:53;;;;;;;5.90;1.10;;;;;;;;;;5001253;28;20048;-72
2022/05/30 05:51:19;;;;;;;4.03;0.95;;;;;;;;;;4996229;28;20417;-73
2022/05/30 05:53:45;;;;;;;7.25;1.30;;;;;;;;;;4965112;28;20101;-72
2022/05/30 05:56:11;;;;;;;4.97;1.20;;;;;;;;;;4999429;28;20034;-72
2022/05/30 05:58:36;;;;;;;3.97;1.40;;;;;;;;;;4998473;28;20029;-72
2022/05/30 06:01:08;;;;;;;2.72;0.80;;;;;;;;;;4982918;28;20057;-72
2022/05/30 06:03:33;;;;;;;6.97;1.15;;;;;;;;;;4981905;28;20205;-73
2022/05/30 06:06:08;;;;;;;5.47;1.05;;;;;;;;;;4983501;28;20148;-73
2022/05/30 06:08:34;;;;;;;3.92;1.15;;;;;;;;;;4982487;28;20056;-73
2022/05/30 06:11:06;;;;;;;5.25;0.90;;;;;;;;;;4964007;28;20025;-73
2022/05/30 06:13:39;;;;;;;2.10;1.10;;;;;;;;;;4965973;28;20388;-72
2022/05/30 06:16:05;;;;;;;3.70;0.88;;;;;;;;;;5000922;28;20068;-72
2022/05/30 06:18:31;;;;;;;3.63;1.23;;;;;;;;;;4999203;28;20044;-72
2022/05/30 06:20:56;;;;;;;5.80;0.98;;;;;;;;;;4966389;28;20061;-72
2022/05/30 06:23:22;;;;;;;5.95;1.40;;;;;;;;;;4981798;28;20380;-72
2022/05/30 06:25:47;;;;;;;2.67;0.93;;;;;;;;;;4979700;28;20447;-73
2022/05/30 06:28:12;;;;;;;3.97;1.17;;;;;;;;;;4983441;28;20471;-72
2022/05/30 06:30:37;;;;;;;3.28;1.00;;;;;;;;;;4979516;28;20435;-72
2022/05/30 06:33:03;;;;;;;3.13;0.90;;;;;;;;;;4983569;28;20464;-72
2022/05/30 06:35:31;;;;;;;3.38;1.00;;;;;;;;;;4999706;28;20493;-72
2022/05/30 06:37:56;;;;;;;3.55;1.00;;;;;;;;;;4981174;28;20053;-72
2022/05/30 06:40:22;;;;;;;6.47;1.10;;;;;;;;;;4966278;28;20580;-73
2022/05/30 06:42:47;;;;;;;7.25;1.55;;;;;;;;;;4998960;28;20278;-72
2022/05/30 06:45:12;;;;;;;4.68;1.13;;;;;;;;;;4982911;28;20057;-71
2022/05/30 06:47:38;;;;;;;4.88;1.20;;;;;;;;;;4982578;28;20037;-72
2022/05/30 06:50:04;;;;;;;3.83;1.30;;;;;;;;;;4999218;28;20033;-73
2022/05/30 06:52:31;;;;;;;3.88;1.13;;;;;;;;;;4980474;28;20618;-72
2022/05/30 06:54:57;;;;;;;3.80;1.20;;;;;;;;;;4964990;28;20080;-73
2022/05/30 07:00:07;;;;;;;4.85;1.25;;;;;;;;;;4985046;28;20462;-73
2022/05/30 07:02:33;;;;;;;4.40;1.20;;;;;;;;;;4966302;28;20492;-72
2022/05/30 07:04:58;;;;;;;4.40;1.10;;;;;;;;;;4964517;28;20347;-73
2022/05/30 07:07:23;;;;;;;6.35;1.00;;;;;;;;;;4965514;28;20029;-72
2022/05/30 07:09:49;;;;;;;4.75;1.27;;;;;;;;;;4996917;28;20030;-72
2022/05/30 07:12:14;;;;;;;3.45;1.20;;;;;;;;;;4980262;28;20446;-73
2022/05/30 07:14:40;;;;;;;4.20;1.15;;;;;;;;;;4980115;28;20099;-73
2022/05/30 07:17:06;;;;;;;6.55;1.23;;;;;;;;;;4982784;28;20026;-72
2022/05/30 07:19:35;;;;;;;4.43;1.38;;;;;;;;;;5001646;28;20456;-72
2022/05/30 07:22:02;;;;;;;5.72;1.23;;;;;;;;;;4980122;28;20056;-73
2022/05/30 07:24:27;;;;;;;7.38;1.20;;;;;;;;;;4984274;28;20147;-72
2022/05/30 07:26:52;;;;;;;3.38;0.90;;;;;;;;;;4996334;28;20531;-72
2022/05/30 07:29:17;;;;;;;4.05;1.08;;;;;;;;;;4998747;28;20061;-72
2022/05/30 07:31:43;;;;;;;2.05;0.95;;;;;;;;;;4978349;28;20117;-73
2022/05/30 07:34:08;;;;;;;3.22;1.00;;;;;;;;;;4984811;28;20022;-72
2022/05/30 07:36:37;;;;;;;6.20;1.10;;;;;;;;;;4980199;28;20519;-72
2022/05/30 07:39:03;;;;;;;2.47;1.00;;;;;;;;;;4968462;28;20057;-72
2022/05/30 07:41:30;;;;;;;5.53;1.10;;;;;;;;;;4998885;28;20042;-72
2022/05/30 07:43:55;;;;;;;4.68;1.30;;;;;;;;;;4979526;28;20750;-72
2022/05/30 07:46:21;;;;;;;3.63;1.08;;;;;;;;;;4998733;28;20042;-72
2022/05/30 07:48:46;;;;;;;5.82;1.20;;;;;;;;;;5004403;28;20033;-72
2022/05/30 07:51:12;;;;;;;4.43;1.40;;;;;;;;;;4981636;28;20042;-72
2022/05/30 07:53:38;;;;;;;2.08;0.90;;;;;;;;;;5004342;28;20083;-71
2022/05/30 07:56:06;;;;;;;5.40;1.08;;;;;;;;;;4982796;28;20073;-72
2022/05/30 07:58:31;;;;;;;1.83;0.88;;;;;;;;;;5002100;28;20014;-73
2022/05/30 08:00:56;;;;;;;3.60;1.05;;;;;;;;;;5001621;28;20030;-71
2022/05/30 08:03:22;;;;;;;3.83;1.20;;;;;;;;;;5002414;28;20014;-72
2022/05/30 08:05:47;;;;;;;4.60;0.98;;;;;;;;;;5001240;28;20022;-72
2022/05/30 08:08:13;;;;;;;3.50;1.10;;;;;;;;;;5001664;28;20777;-71
2022/05/30 08:10:39;;;;;;;4.28;1.10;;;;;;;;;;5000235;28;20383;-71
2022/05/30 08:13:05;;;;;;;4.35;1.00;;;;;;;;;;4981476;28;20508;-72
2022/05/30 08:15:30;;;;;;;3.80;1.00;;;;;;;;;;4986490;28;20101;-73
2022/05/30 08:17:57;;;;;;;3.28;0.80;;;;;;;;;;4985149;28;20026;-73
2022/05/30 08:20:23;;;;;;;2.50;0.70;;;;;;;;;;4985990;28;20105;-72
2022/05/30 08:22:49;;;;;;;2.97;1.05;;;;;;;;;;5000228;28;20069;-72
2022/05/30 08:25:15;;;;;;;1.85;1.00;;;;;;;;;;5001547;28;20312;-72
2022/05/30 08:27:42;;;;;;;4.70;1.10;;;;;;;;;;4986164;28;20029;-71
2022/05/30 08:30:08;;;;;;;2.92;1.00;;;;;;;;;;4980752;28;20060;-72
2022/05/30 08:32:37;;;;;;;1.70;0.90;;;;;;;;;;4984760;28;20022;-71
2022/05/30 08:35:04;;;;;;;3.78;0.98;;;;;;;;;;4982584;28;20173;-72
2022/05/30 08:37:31;;;;;;;4.03;0.90;;;;;;;;;;5002660;28;20448;-71
2022/05/30 08:42:45;;;;;;;3.83;1.30;;;;;;;;;;5004191;28;20076;-71
2022/05/30 08:45:13;;;;;;;2.63;1.08;;;;;;;;;;5000325;28;20136;-72
2022/05/30 08:47:52;;;;;;;4.50;1.20;;;;;;;;;;4987440;28;20507;-73
2022/05/30 08:50:37;;;;;;;1.83;0.88;;;;;;;;;;5002408;28;20033;-69
2022/05/30 08:53:10;;;;;;;4.35;0.93;;;;;;;;;;4982170;28;20366;-70
2022/05/30 08:55:39;;;;;;;4.53;1.10;;;;;;;;;;4985169;28;20061;-70
2022/05/30 08:58:22;;;;;;;4.70;0.90;;;;;;;;;;5001428;28;20835;-71
2022/05/30 09:00:52;;;;;;;3.45;0.90;;;;;;;;;;5002783;28;20419;-71
2022/05/30 09:03:21;;;;;;;2.40;0.70;;;;;;;;;;5003769;28;20492;-71
2022/05/30 09:06:07;;;;;;;2.95;0.82;;;;;;;;;;5000881;28;20030;-71
2022/05/30 09:08:36;;;;;;;4.10;0.88;;;;;;;;;;4984007;28;20025;-72
2022/05/30 09:11:03;;;;;;;2.50;0.98;;;;;;;;;;4980440;28;20068;-72
2022/05/30 09:13:31;;;;;;;1.70;1.02;;;;;;;;;;5000558;28;20029;-72
2022/05/30 09:16:03;;;;;;;3.65;0.82;;;;;;;;;;5000027;28;20556;-72
2022/05/30 09:18:41;;;;;;;4.28;1.05;;;;;;;;;;5003955;28;20428;-73
2022/05/30 09:21:08;;;;;;;3.80;1.27;;;;;;;;;;5000048;28;20345;-71
2022/05/30 09:23:33;;;;;;;3.33;0.80;;;;;;;;;;4985610;28;20017;-73
2022/05/30 09:26:07;;;;;;;5.15;1.30;;;;;;;;;;4998551;28;20472;-73
2022/05/30 09:28:35;;;;;;;4.32;1.10;;;;;;;;;;4969757;28;20041;-72
2022/05/30 09:31:08;;;;;;;5.03;1.23;;;;;;;;;;5001092;28;20014;-71
2022/05/30 09:33:35;;;;;;;2.85;0.90;;;;;;;;;;4985601;28;20382;-72
2022/05/30 09:36:10;;;;;;;5.85;1.33;;;;;;;;;;5000342;28;20041;-73
2022/05/30 09:38:39;;;;;;;2.88;0.80;;;;;;;;;;5004184;28;20109;-72
2022/05/30 09:41:06;;;;;;;2.25;0.88;;;;;;;;;;4998509;28;20057;-72
2022/05/30 09:43:52;;;;;;;6.28;1.40;;;;;;;;;;4987335;28;20105;-72
2022/05/30 09:46:24;;;;;;;4.05;0.90;;;;;;;;;;5000661;28;20049;-72
2022/05/30 09:49:01;;;;;;;5.28;1.25;;;;;;;;;;4984074;28;20117;-73
2022/05/30 09:51:30;;;;;;;2.17;0.90;;;;;;;;;;4965991;28;20097;-72
2022/05/30 09:53:55;;;;;;;3.90;0.95;;;;;;;;;;4982022;28;20312;-73
2022/05/30 09:56:21;;;;;;;2.13;0.82;;;;;;;;;;4981110;28;20174;-73
2022/05/30 09:59:01;;;;;;;2.58;0.70;;;;;;;;;;4983969;28;20029;-70
2022/05/30 10:01:28;;;;;;;4.88;0.88;;;;;;;;;;5001204;28;20662;-72
2022/05/30 10:03:59;;;;;;;2.42;0.90;;;;;;;;;;4981635;28;20061;-72
2022/05/30 10:06:26;;;;;;;2.45;0.90;;;;;;;;;;4966515;28;20323;-73
2022/05/30 10:09:07;;;;;;;2.85;0.80;;;;;;;;;;4983237;28;20029;-72
2022/05/30 10:11:34;;;;;;;3.50;0.90;;;;;;;;;;4981238;28;20083;-72
2022/05/30 10:13:59;;;;;;;4.18;1.10;;;;;;;;;;4999214;28;20017;-72
2022/05/30 10:16:34;;;;;;;2.65;0.90;;;;;;;;;;5001124;28;20014;-71
2022/05/30 10:19:01;;;;;;;2.35;0.82;;;;;;;;;;4982213;28;20133;-72
2022/05/30 10:28:14;;;;;;;4.18;0.90;;;;;;;;;;4999876;28;20670;-72
2022/05/30 10:30:25;;;;;;;3.60;0.77;;;;;;;;;;4998150;28;20658;-71
2022/05/30 10:32:56;;;;;;;2.00;0.80;;;;;;;;;;4981946;28;20014;-72
2022/05/30 10:35:37;;;;;;;4.15;0.85;;;;;;;;;;5000537;28;20022;-71
2022/05/30 10:38:11;;;;;;;4.22;1.00;;;;;;;;;;4980214;28;20021;-69
2022/05/30 10:40:36;;;;;;;5.68;1.30;;;;;;;;;;4984471;28;20033;-71
2022/05/30 10:43:14;;;;;;;2.20;0.82;;;;;;;;;;4983442;28;20022;-70
2022/05/30 10:45:42;;;;;;;3.35;0.90;;;;;;;;;;5000392;28;20485;-70
2022/05/30 10:48:09;;;;;;;2.42;0.80;;;;;;;;;;4999623;28;20030;-71
2022/05/30 10:50:50;;;;;;;3.40;0.80;;;;;;;;;;5001950;28;20049;-73
2022/05/30 10:53:35;;;;;;;3.65;0.75;;;;;;;;;;4978668;28;20507;-70
2022/05/30 10:56:02;;;;;;;3.40;0.88;;;;;;;;;;4996757;28;20400;-69
2022/05/30 10:58:42;;;;;;;4.18;1.02;;;;;;;;;;4985082;28;20076;-69
2022/05/30 11:01:28;;;;;;;2.45;0.90;;;;;;;;;;4994759;28;20079;-70
2022/05/30 11:04:05;;;;;;;2.78;0.70;;;;;;;;;;4990625;28;20057;-70
2022/05/30 11:06:33;;;;;;;4.95;0.85;;;;;;;;;;4998836;28;20029;-71
2022/05/30 11:09:01;;;;;;;6.13;1.10;;;;;;;;;;4983511;28;20045;-71
2022/05/30 11:11:41;;;;;;;5.55;1.00;;;;;;;;;;4980780;28;20189;-70
2022/05/30 11:14:23;;;;;;;4.30;1.17;;;;;;;;;;5001199;28;20048;-70
2022/05/30 11:16:58;;;;;;;2.50;0.75;;;;;;;;;;5001131;28;20162;-71
2022/05/30 11:19:27;;;;;;;2.55;0.73;;;;;;;;;;4984073;28;20018;-72
2022/05/30 11:22:01;;;;;;;1.55;0.70;;;;;;;;;;4985061;28;20484;-70
2022/05/30 11:24:27;;;;;;;2.88;0.80;;;;;;;;;;5005927;28;20033;-70
2022/05/30 11:27:03;;;;;;;2.85;1.13;;;;;;;;;;4987330;28;20470;-70
2022/05/30 11:29:28;;;;;;;2.53;0.90;;;;;;;;;;5004024;28;20018;-71
2022/05/30 11:31:54;;;;;;;4.35;0.90;;;;;;;;;;5004477;28;20029;-70
2022/05/30 11:34:28;;;;;;;6.25;1.00;;;;;;;;;;5003837;28;20022;-70
2022/05/30 11:36:59;;;;;;;4.25;1.00;;;;;;;;;;4987019;28;20021;-70
2022/05/30 11:39:37;;;;;;;4.10;1.30;;;;;;;;;;4988219;28;20022;-71
2022/05/30 11:42:15;;;;;;;3.40;0.93;;;;;;;;;;4985134;28;20010;-71
2022/05/30 11:44:50;;;;;;;5.05;1.30;;;;;;;;;;5001911;28;20295;-71
2022/05/30 11:47:19;;;;;;;4.00;1.02;;;;;;;;;;4985313;28;20105;-70
2022/05/30 11:49:54;;;;;;;3.42;1.20;;;;;;;;;;4987556;28;20026;-70
2022/05/30 11:52:38;;;;;;;5.63;1.25;;;;;;;;;;5001525;28;20022;-69
2022/05/30 11:55:10;;;;;;;5.35;1.52;;;;;;;;;;5000151;28;20168;-70
2022/05/30 11:57:56;;;;;;;3.25;1.25;;;;;;;;;;4987138;28;20014;-70
2022/05/30 12:00:35;;;;;;;3.95;1.02;;;;;;;;;;4978769;28;20361;-71
2022/05/30 12:03:22;;;;;;;4.53;1.00;;;;;;;;;;4987663;28;20022;-71
2022/05/30 12:05:47;;;;;;;4.88;1.20;;;;;;;;;;4987560;28;20025;-69
2022/05/30 12:08:25;;;;;;;5.00;1.05;;;;;;;;;;4985955;28;20026;-71
2022/05/30 12:10:56;;;;;;;2.33;0.80;;;;;;;;;;4984054;28;20033;-70
2022/05/30 12:13:37;;;;;;;3.30;1.35;;;;;;;;;;5001156;28;20127;-69
2022/05/30 12:16:13;;;;;;;3.08;1.00;;;;;;;;;;4983285;28;20116;-70
2022/05/30 12:24:18;;;;;;;2.50;0.82;;;;;;;;;;5004106;28;20530;-70
2022/05/30 12:26:48;;;;;;;3.90;0.87;;;;;;;;;;5002432;28;20053;-71
2022/05/30 12:29:31;;;;;;;3.47;0.90;;;;;;;;;;5002029;28;20801;-70
2022/05/30 12:32:19;;;;;;;7.03;1.10;;;;;;;;;;4999743;28;20077;-71
2022/05/30 12:35:10;;;;;;;1.92;0.70;;;;;;;;;;4986447;28;20099;-70
2022/05/30 12:37:45;;;;;;;3.20;0.98;;;;;;;;;;4987144;28;20022;-71
2022/05/30 12:40:13;;;;;;;5.07;1.20;;;;;;;;;;4998416;28;20168;-70
2022/05/30 12:42:42;;;;;;;1.80;0.75;;;;;;;;;;4986394;28;20182;-70
2022/05/30 12:45:26;;;;;;;2.63;0.70;;;;;;;;;;4982782;28;20064;-70
2022/05/30 12:47:53;;;;;;;3.00;1.42;;;;;;;;;;5004371;28;20115;-71
2022/05/30 12:50:31;;;;;;;3.72;1.02;;;;;;;;;;4999486;28;20030;-73
2022/05/30 12:52:58;;;;;;;3.15;1.08;;;;;;;;;;5001655;28;20067;-71
2022/05/30 12:55:33;;;;;;;2.70;0.95;;;;;;;;;;4998622;28;20018;-71
2022/05/30 12:57:58;;;;;;;2.72;0.80;;;;;;;;;;5002868;28;20022;-71
2022/05/30 13:00:44;;;;;;;4.18;1.13;;;;;;;;;;4982192;28;20593;-72
2022/05/30 13:03:24;;;;;;;2.72;0.90;;;;;;;;;;4984542;28;20411;-70
2022/05/30 13:06:02;;;;;;;7.40;1.17;;;;;;;;;;5004009;28;20024;-71
2022/05/30 13:08:50;;;;;;;2.67;1.02;;;;;;;;;;4984226;28;20056;-72
2022/05/30 13:11:38;;;;;;;2.20;0.90;;;;;;;;;;4980058;28;20032;-71
2022/05/30 13:14:12;;;;;;;2.30;0.80;;;;;;;;;;4987844;28;20431;-69
2022/05/30 13:16:39;;;;;;;4.55;1.08;;;;;;;;;;4999440;28;20020;-70
2022/05/30 13:19:06;;;;;;;5.63;1.10;;;;;;;;;;4985578;28;20028;-70
2022/05/30 13:21:32;;;;;;;6.85;1.10;;;;;;;;;;4980558;28;20029;-70
2022/05/30 13:23:59;;;;;;;4.22;0.95;;;;;;;;;;5003321;28;20044;-71
2022/05/30 13:26:24;;;;;;;2.63;0.77;;;;;;;;;;4978808;28;20020;-70
2022/05/30 13:28:50;;;;;;;4.97;1.23;;;;;;;;;;4986905;28;20333;-71
2022/05/30 13:31:15;;;;;;;3.95;1.35;;;;;;;;;;4980464;28;20499;-73
2022/05/30 13:33:46;;;;;;;3.47;0.98;;;;;;;;;;4986936;28;20018;-71
2022/05/30 13:36:16;;;;;;;5.55;1.40;;;;;;;;;;4979471;28;20018;-70
2022/05/30 13:38:43;;;;;;;2.70;1.00;;;;;;;;;;5005563;28;20030;-70
2022/05/30 13:41:27;;;;;;;3.47;0.80;;;;;;;;;;4998492;28;20022;-71
2022/05/30 13:43:53;;;;;;;3.78;0.90;;;;;;;;;;4987364;28;20021;-70
2022/05/30 13:46:23;;;;;;;4.50;1.08;;;;;;;;;;4999637;28;20317;-71
2022/05/30 13:48:48;;;;;;;5.15;0.82;;;;;;;;;;5003445;28;20025;-72
2022/05/30 13:51:16;;;;;;;3.42;1.10;;;;;;;;;;4963412;28;20472;-69
2022/05/30 13:53:46;;;;;;;4.10;1.10;;;;;;;;;;5003491;28;20053;-70
2022/05/30 13:56:17;;;;;;;3.42;1.00;;;;;;;;;;4981063;28;20097;-69
2022/05/30 13:58:45;;;;;;;3.72;0.90;;;;;;;;;;4986102;28;20049;-71
2022/05/30 14:01:13;;;;;;;4.00;0.90;;;;;;;;;;4980514;28;20026;-71
2022/05/30 14:03:41;;;;;;;3.58;1.00;;;;;;;;;;4985715;28;20653;-70
2022/05/30 14:06:18;;;;;;;2.42;0.90;;;;;;;;;;4978896;28;20021;-72
2022/05/30 14:08:44;;;;;;;3.55;1.30;;;;;;;;;;4985363;28;20029;-71
2022/05/30 14:11:09;;;;;;;3.75;0.85;;;;;;;;;;4963208;28;20030;-72
2022/05/30 14:13:49;;;;;;;4.03;1.05;;;;;;;;;;4999363;28;20085;-71
2022/05/30 14:16:31;;;;;;;3.00;0.95;;;;;;;;;;4994562;28;20110;-71
2022/05/30 14:19:01;;;;;;;5.35;0.90;;;;;;;;;;5002629;28;20055;-72
2022/05/30 14:21:27;;;;;;;3.13;1.17;;;;;;;;;;4975014;28;20029;-72
2022/05/30 14:23:54;;;;;;;3.67;1.00;;;;;;;;;;5003324;28;20017;-72
2022/05/30 14:26:24;;;;;;;5.15;1.98;;;;;;;;;;4994223;28;20438;-70
2022/05/30 14:28:53;;;;;;;3.08;0.98;;;;;;;;;;5001782;28;20551;-74
2022/05/30 14:31:20;;;;;;;3.38;1.10;;;;;;;;;;4977635;28;20090;-71
2022/05/30 14:33:57;;;;;;;4.00;1.10;;;;;;;;;;4982593;28;20101;-71
2022/05/30 14:36:35;;;;;;;5.15;1.50;;;;;;;;;;4977036;28;20037;-71
2022/05/30 14:39:01;;;;;;;4.38;1.15;;;;;;;;;;4985937;28;20025;-70
2022/05/30 14:41:31;;;;;;;2.90;0.98;;;;;;;;;;4996843;28;20022;-69
2022/05/30 14:43:58;;;;;;;3.65;1.02;;;;;;;;;;5002070;28;20022;-69
2022/05/30 14:46:42;;;;;;;3.55;0.95;;;;;;;;;;4962026;28;20128;-69
2022/05/30 14:49:14;;;;;;;5.03;1.20;;;;;;;;;;5002941;28;20022;-71
2022/05/30 14:51:48;;;;;;;4.95;1.30;;;;;;;;;;4973872;28;20029;-71
2022/05/30 14:54:15;;;;;;;3.60;1.15;;;;;;;;;;5003534;28;20459;-72
2022/05/30 14:56:42;;;;;;;3.05;1.02;;;;;;;;;;4980506;28;20026;-71
2022/05/30 14:59:08;;;;;;;4.15;1.20;;;;;;;;;;5006123;28;20026;-70
2022/05/30 15:01:34;;;;;;;3.63;1.20;;;;;;;;;;4982515;28;20072;-69
2022/05/30 15:04:04;;;;;;;3.80;1.00;;;;;;;;;;4973811;28;20395;-71
2022/05/30 15:06:37;;;;;;;3.88;1.20;;;;;;;;;;4967412;28;20053;-71
2022/05/30 15:09:03;;;;;;;3.45;1.13;;;;;;;;;;4988970;28;20018;-73
2022/05/30 15:11:29;;;;;;;4.70;1.05;;;;;;;;;;4980283;28;20105;-71
2022/05/30 15:13:55;;;;;;;3.55;1.17;;;;;;;;;;5006070;28;20112;-71
2022/05/30 15:16:21;;;;;;;4.53;1.40;;;;;;;;;;4965241;28;20176;-71
2022/05/30 15:18:46;;;;;;;4.78;1.00;;;;;;;;;;4987592;28;20045;-71
2022/05/30 15:21:20;;;;;;;3.05;0.93;;;;;;;;;;4984188;28;20046;-70